Time;durP1;ratioP1;P1;durP2;ratioP2;P2;SDS_P1;SDS_P2;PMS_P1;PMS_P2;Temp;Humidity;BMP_temperature;BMP_pressure;BME280_temperature;BME280_humidity;BME280_pressure;Samples;Min_cycle;Max_cycle;Signal;HPM_P1;HPM_P2
2023/07/13 00:01:30;;;;;;;12.35;3.45;;;16.20;99.90;;;;;;5058232;28;20139;-72
2023/07/13 00:03:57;;;;;;;13.00;3.70;;;16.20;99.90;;;;;;5064401;28;20174;-72
2023/07/13 00:06:23;;;;;;;12.68;3.03;;;16.20;99.90;;;;;;5054969;28;20072;-72
2023/07/13 00:08:49;;;;;;;8.18;2.65;;;16.10;99.90;;;;;;5059158;28;20052;-72
2023/07/13 00:11:15;;;;;;;12.35;3.95;;;16.20;99.90;;;;;;5058172;28;20059;-71
2023/07/13 00:13:42;;;;;;;10.20;3.45;;;16.20;99.90;;;;;;5059168;28;20035;-71
2023/07/13 00:16:09;;;;;;;13.02;3.70;;;16.10;99.90;;;;;;5044826;28;20098;-72
2023/07/13 00:18:35;;;;;;;11.30;3.30;;;16.10;99.90;;;;;;5049543;28;20119;-72
2023/07/13 00:21:05;;;;;;;11.02;3.20;;;16.20;99.90;;;;;;5041142;28;20411;-72
2023/07/13 00:23:39;;;;;;;11.25;3.22;;;16.20;99.90;;;;;;5044846;28;20169;-72
2023/07/13 00:26:07;;;;;;;11.57;3.70;;;16.20;99.90;;;;;;5071341;28;20508;-72
2023/07/13 00:28:34;;;;;;;9.95;3.38;;;16.20;99.90;;;;;;5044160;28;20134;-72
2023/07/13 00:31:00;;;;;;;10.25;3.60;;;16.20;99.90;;;;;;5047089;28;20033;-72
2023/07/13 00:33:27;;;;;;;11.10;3.80;;;16.20;99.90;;;;;;5061612;28;20521;-72
2023/07/13 00:35:57;;;;;;;10.50;3.38;;;16.20;99.90;;;;;;5059243;28;20079;-72
2023/07/13 00:38:24;;;;;;;10.68;3.28;;;16.30;99.90;;;;;;5054203;28;20106;-72
2023/07/13 00:40:50;;;;;;;12.73;3.17;;;16.30;99.90;;;;;;5056005;28;20047;-72
2023/07/13 00:43:21;;;;;;;10.50;3.63;;;16.30;99.90;;;;;;5042561;28;20139;-72
2023/07/13 00:45:47;;;;;;;13.20;4.22;;;16.30;99.90;;;;;;5054553;28;20080;-72
2023/07/13 00:48:17;;;;;;;10.52;3.30;;;16.30;99.90;;;;;;5062263;28;20051;-72
2023/07/13 00:50:45;;;;;;;13.25;4.07;;;16.30;99.90;;;;;;5061727;28;20083;-72
2023/07/13 00:53:11;;;;;;;15.88;4.00;;;16.30;99.90;;;;;;5061258;28;20048;-72
2023/07/13 00:55:38;;;;;;;12.93;4.18;;;16.30;99.90;;;;;;5057519;28;20568;-72
2023/07/13 00:58:06;;;;;;;10.32;3.08;;;16.20;99.90;;;;;;5060198;28;20074;-72
2023/07/13 01:00:38;;;;;;;11.23;3.53;;;16.30;99.90;;;;;;5058420;28;20052;-73
2023/07/13 01:03:04;;;;;;;11.95;3.88;;;16.20;99.90;;;;;;5042186;28;20459;-72
2023/07/13 01:05:35;;;;;;;14.80;3.72;;;16.20;99.90;;;;;;5067384;28;20044;-74
2023/07/13 01:08:05;;;;;;;12.98;3.58;;;16.20;99.90;;;;;;5066927;28;20059;-73
2023/07/13 01:10:38;;;;;;;12.88;3.88;;;16.20;99.90;;;;;;5063926;28;20101;-72
2023/07/13 01:13:05;;;;;;;10.43;3.78;;;16.20;99.90;;;;;;5049765;28;20052;-72
2023/07/13 01:15:45;;;;;;;9.23;3.92;;;16.20;99.90;;;;;;5055006;28;20058;-72
2023/07/13 01:18:18;;;;;;;11.85;3.42;;;16.20;99.90;;;;;;5065196;28;20135;-73
2023/07/13 01:20:57;;;;;;;13.30;3.90;;;16.20;99.90;;;;;;5039960;28;20101;-72
2023/07/13 01:23:24;;;;;;;11.20;3.85;;;16.10;99.90;;;;;;5047553;28;20048;-73
2023/07/13 01:25:51;;;;;;;14.68;3.72;;;16.20;99.90;;;;;;5047419;28;20118;-72
2023/07/13 01:28:17;;;;;;;13.13;4.20;;;16.10;99.90;;;;;;5064065;28;20497;-73
2023/07/13 01:30:45;;;;;;;12.13;3.70;;;16.10;99.90;;;;;;5064691;28;20040;-72
2023/07/13 01:33:13;;;;;;;12.40;3.95;;;16.10;99.90;;;;;;5047388;28;20045;-72
2023/07/13 01:35:40;;;;;;;8.85;3.78;;;16.10;99.90;;;;;;5048659;28;20079;-73
2023/07/13 01:38:05;;;;;;;12.45;3.92;;;16.10;99.90;;;;;;5046573;28;20044;-73
2023/07/13 01:40:31;;;;;;;10.68;3.63;;;16.00;99.90;;;;;;5062203;28;20036;-72
2023/07/13 01:42:58;;;;;;;12.00;3.88;;;16.00;99.90;;;;;;5043495;28;20130;-73
2023/07/13 01:45:24;;;;;;;7.85;3.40;;;16.00;99.90;;;;;;5063991;28;20075;-72
2023/07/13 01:47:50;;;;;;;10.75;3.80;;;16.00;99.90;;;;;;5063716;28;20491;-72
2023/07/13 01:50:16;;;;;;;9.63;3.60;;;15.90;99.90;;;;;;5070721;28;20063;-72
2023/07/13 01:52:42;;;;;;;12.27;3.90;;;15.90;99.90;;;;;;5045222;28;20040;-72
2023/07/13 01:55:11;;;;;;;11.05;3.63;;;15.90;99.90;;;;;;5074030;28;20532;-72
2023/07/13 01:57:36;;;;;;;11.60;3.92;;;16.00;99.90;;;;;;5050623;28;20130;-72
2023/07/13 02:00:10;;;;;;;11.02;3.75;;;15.90;99.90;;;;;;5061901;28;20088;-72
2023/07/13 02:02:35;;;;;;;9.93;3.80;;;15.90;99.90;;;;;;5049601;28;20049;-73
2023/07/13 02:05:01;;;;;;;10.27;3.72;;;15.90;99.90;;;;;;5050084;28;20425;-73
2023/07/13 02:07:27;;;;;;;15.63;4.20;;;15.90;99.90;;;;;;5039367;28;20275;-73
2023/07/13 02:09:53;;;;;;;9.35;4.00;;;15.80;99.90;;;;;;5058747;28;20067;-73
2023/07/13 02:12:19;;;;;;;12.20;4.18;;;15.90;99.90;;;;;;5064300;28;20708;-73
2023/07/13 02:14:45;;;;;;;11.10;4.05;;;15.80;99.90;;;;;;5035782;28;20079;-72
2023/07/13 02:17:11;;;;;;;11.25;3.63;;;15.80;99.90;;;;;;5046980;28;20483;-72
2023/07/13 02:19:37;;;;;;;11.60;4.85;;;15.80;99.90;;;;;;5054660;28;20036;-72
2023/07/13 02:22:02;;;;;;;9.68;3.75;;;15.80;99.90;;;;;;5059266;28;20094;-72
2023/07/13 02:24:28;;;;;;;14.00;4.35;;;15.80;99.90;;;;;;5054531;28;20057;-72
2023/07/13 02:26:54;;;;;;;13.90;4.65;;;15.80;99.90;;;;;;5035222;28;20075;-72
2023/07/13 02:29:20;;;;;;;12.27;4.82;;;15.80;99.90;;;;;;5045878;28;20074;-72
2023/07/13 02:31:45;;;;;;;13.00;4.43;;;15.70;99.90;;;;;;5055676;28;20492;-71
2023/07/13 02:34:11;;;;;;;12.90;4.55;;;15.70;99.90;;;;;;5054085;28;20555;-72
2023/07/13 02:36:37;;;;;;;12.40;3.90;;;15.70;99.90;;;;;;5042001;28;20203;-72
2023/07/13 02:39:05;;;;;;;15.20;4.15;;;15.70;99.90;;;;;;5047233;28;20470;-72
2023/07/13 02:41:31;;;;;;;16.73;4.57;;;15.70;99.90;;;;;;5056240;28;20053;-72
2023/07/13 02:44:03;;;;;;;12.32;4.07;;;15.70;99.90;;;;;;5052540;28;20527;-72
2023/07/13 02:46:33;;;;;;;14.13;4.18;;;15.70;99.90;;;;;;5042029;28;20053;-72
2023/07/13 02:48:59;;;;;;;14.65;4.25;;;15.70;99.90;;;;;;5041223;28;20060;-72
2023/07/13 02:51:26;;;;;;;11.63;4.57;;;15.60;99.90;;;;;;5044613;28;20047;-72
2023/07/13 02:53:52;;;;;;;11.60;4.20;;;15.60;99.90;;;;;;5056955;28;20037;-72
2023/07/13 02:56:24;;;;;;;13.27;4.32;;;15.60;99.90;;;;;;5042287;28;20287;-73
2023/07/13 02:58:50;;;;;;;13.13;4.40;;;15.60;99.90;;;;;;5031286;28;20407;-72
2023/07/13 03:01:18;;;;;;;11.93;4.80;;;15.50;99.90;;;;;;5047777;28;20067;-72
2023/07/13 03:03:46;;;;;;;11.10;4.18;;;15.50;99.90;;;;;;5061506;28;20113;-72
2023/07/13 03:06:12;;;;;;;13.30;4.80;;;15.50;99.90;;;;;;5050926;28;20647;-72
2023/07/13 03:08:38;;;;;;;12.65;4.43;;;15.50;99.90;;;;;;5059955;28;20410;-72
2023/07/13 03:11:08;;;;;;;11.98;4.45;;;15.50;99.90;;;;;;5064134;28;20402;-72
2023/07/13 03:13:34;;;;;;;13.40;4.50;;;15.50;99.90;;;;;;5037910;28;20059;-72
2023/07/13 03:16:00;;;;;;;15.57;4.47;;;15.50;99.90;;;;;;5046270;28;20044;-72
2023/07/13 03:18:27;;;;;;;17.42;5.07;;;15.50;99.90;;;;;;5059272;28;20415;-72
2023/07/13 03:20:53;;;;;;;13.38;4.60;;;15.50;99.90;;;;;;5051287;28;20118;-72
2023/07/13 03:23:20;;;;;;;12.90;4.25;;;15.50;99.90;;;;;;5040347;28;21378;-71
2023/07/13 03:25:46;;;;;;;12.40;4.25;;;15.50;99.90;;;;;;5052646;28;20040;-72
2023/07/13 03:28:12;;;;;;;15.27;4.43;;;15.50;99.90;;;;;;5041386;28;20864;-72
2023/07/13 03:30:38;;;;;;;11.77;4.50;;;15.50;99.90;;;;;;5054303;28;20052;-72
2023/07/13 03:33:04;;;;;;;12.45;4.15;;;15.50;99.90;;;;;;5040806;28;20033;-72
2023/07/13 03:35:32;;;;;;;13.15;4.32;;;15.50;99.90;;;;;;5056577;28;20040;-72
2023/07/13 03:37:59;;;;;;;14.13;4.28;;;15.50;99.90;;;;;;5050094;28;20056;-71
2023/07/13 03:40:26;;;;;;;15.52;5.40;;;15.60;99.90;;;;;;5051888;28;20056;-72
2023/07/13 03:42:52;;;;;;;13.55;4.45;;;15.50;99.90;;;;;;5042759;28;20048;-72
2023/07/13 03:45:18;;;;;;;13.25;4.35;;;15.50;99.90;;;;;;5054362;28;20077;-72
2023/07/13 03:47:44;;;;;;;12.32;4.63;;;15.60;99.90;;;;;;5056649;28;20160;-72
2023/07/13 03:50:13;;;;;;;13.55;4.22;;;15.60;99.90;;;;;;5058122;28;20193;-72
2023/07/13 03:52:39;;;;;;;10.35;3.90;;;15.60;99.90;;;;;;5056082;28;20048;-72
2023/07/13 03:55:06;;;;;;;13.77;4.30;;;15.60;99.90;;;;;;5059411;28;20029;-72
2023/07/13 03:57:32;;;;;;;14.23;5.13;;;15.60;99.90;;;;;;5055160;28;20591;-72
2023/07/13 03:59:57;;;;;;;12.75;4.20;;;15.60;99.90;;;;;;5056002;28;20384;-72
2023/07/13 04:02:23;;;;;;;13.23;5.25;;;15.60;99.90;;;;;;5032148;28;21405;-74
2023/07/13 04:04:49;;;;;;;11.85;4.55;;;15.60;99.90;;;;;;5028627;28;20048;-72
2023/07/13 04:07:15;;;;;;;14.68;4.30;;;15.60;99.90;;;;;;5058535;28;20082;-73
2023/07/13 04:09:40;;;;;;;11.63;4.57;;;15.50;99.90;;;;;;5059448;28;20052;-72
2023/07/13 04:12:08;;;;;;;15.40;5.55;;;15.50;99.90;;;;;;5041267;28;20051;-72
2023/07/13 04:14:33;;;;;;;13.02;5.13;;;15.50;99.90;;;;;;5055902;28;20037;-72
2023/07/13 04:16:59;;;;;;;12.65;4.75;;;15.50;99.90;;;;;;5035368;28;20079;-72
2023/07/13 04:19:25;;;;;;;11.35;4.05;;;15.40;99.90;;;;;;5055578;28;20556;-72
2023/07/13 04:21:51;;;;;;;12.10;4.47;;;15.40;99.90;;;;;;5059068;28;20114;-73
2023/07/13 04:24:16;;;;;;;10.48;4.22;;;15.40;99.90;;;;;;5040417;28;20044;-73
2023/07/13 04:26:42;;;;;;;12.95;4.82;;;15.40;99.90;;;;;;5039182;28;20036;-73
2023/07/13 04:29:08;;;;;;;14.68;4.72;;;15.40;99.90;;;;;;5067976;28;20048;-72
2023/07/13 04:31:34;;;;;;;11.75;4.25;;;15.40;99.90;;;;;;5055943;28;20040;-73
2023/07/13 04:34:00;;;;;;;14.73;5.07;;;15.40;99.90;;;;;;5041019;28;20041;-72
2023/07/13 04:36:28;;;;;;;12.77;4.88;;;15.40;99.90;;;;;;5071607;28;20052;-71
2023/07/13 04:38:54;;;;;;;10.30;4.63;;;15.40;99.90;;;;;;5036052;28;20098;-71
2023/07/13 04:41:21;;;;;;;13.23;5.28;;;15.40;99.90;;;;;;5055105;28;20044;-72
2023/07/13 04:43:48;;;;;;;13.23;4.82;;;15.40;99.90;;;;;;5056910;28;20036;-72
2023/07/13 04:46:17;;;;;;;13.82;4.88;;;15.40;99.90;;;;;;5058114;28;20105;-72
2023/07/13 04:48:43;;;;;;;11.63;4.43;;;15.50;99.90;;;;;;5044520;28;20040;-72
2023/07/13 04:51:09;;;;;;;12.52;4.75;;;15.50;99.90;;;;;;5061860;28;20040;-72
2023/07/13 04:53:35;;;;;;;16.08;5.82;;;15.50;99.90;;;;;;5047561;28;20047;-72
2023/07/13 04:56:01;;;;;;;14.07;5.55;;;15.60;99.90;;;;;;5037389;28;20064;-72
2023/07/13 04:58:28;;;;;;;11.07;5.25;;;15.60;99.90;;;;;;5059236;28;20051;-72
2023/07/13 05:01:00;;;;;;;13.25;5.05;;;15.60;99.90;;;;;;5037051;28;20084;-72
2023/07/13 05:03:25;;;;;;;11.98;4.75;;;15.70;99.90;;;;;;5060069;28;20581;-72
2023/07/13 05:06:00;;;;;;;16.33;5.30;;;15.70;99.90;;;;;;5061620;28;20124;-72
2023/07/13 05:08:26;;;;;;;14.35;5.38;;;15.70;99.90;;;;;;5054736;28;20044;-72
2023/07/13 05:10:52;;;;;;;13.77;5.70;;;15.70;99.90;;;;;;5060493;28;20560;-73
2023/07/13 05:13:19;;;;;;;13.07;5.25;;;15.70;99.90;;;;;;5055973;28;21445;-72
2023/07/13 05:15:45;;;;;;;11.52;4.93;;;15.70;99.90;;;;;;5058341;28;20036;-72
2023/07/13 05:18:11;;;;;;;12.27;5.05;;;15.70;99.90;;;;;;5058784;28;20045;-72
2023/07/13 05:20:37;;;;;;;13.23;5.65;;;15.70;99.90;;;;;;5039893;28;20605;-72
2023/07/13 05:23:03;;;;;;;13.80;5.88;;;15.80;99.90;;;;;;5058478;28;20526;-72
2023/07/13 05:25:31;;;;;;;12.68;4.95;;;15.80;99.90;;;;;;5064657;28;20662;-72
2023/07/13 05:27:57;;;;;;;13.02;5.40;;;15.80;99.90;;;;;;5048849;28;20041;-72
2023/07/13 05:30:23;;;;;;;15.48;6.30;;;15.80;99.90;;;;;;5038886;28;20061;-73
2023/07/13 05:32:48;;;;;;;15.00;5.38;;;15.90;99.90;;;;;;5059799;28;20036;-72
2023/07/13 05:35:14;;;;;;;11.85;5.53;;;15.90;99.90;;;;;;5054824;28;20159;-72
2023/07/13 05:37:40;;;;;;;13.10;5.50;;;15.90;99.90;;;;;;5062803;28;20047;-73
2023/07/13 05:40:06;;;;;;;10.85;4.97;;;16.00;99.90;;;;;;5042741;28;20036;-73
2023/07/13 05:42:32;;;;;;;12.73;5.18;;;16.00;99.90;;;;;;5043760;28;20056;-72
2023/07/13 05:44:58;;;;;;;15.32;5.55;;;16.00;99.90;;;;;;5048623;28;20068;-73
2023/07/13 05:47:24;;;;;;;10.40;5.43;;;16.00;99.90;;;;;;5063499;28;20052;-72
2023/07/13 05:49:49;;;;;;;13.07;5.93;;;16.10;99.90;;;;;;5037201;28;20041;-73
2023/07/13 05:52:15;;;;;;;16.02;5.82;;;16.10;99.90;;;;;;5045596;28;20541;-73
2023/07/13 05:54:41;;;;;;;14.82;5.68;;;16.20;99.90;;;;;;5056649;28;20047;-76
2023/07/13 05:57:10;;;;;;;11.48;5.10;;;16.20;99.90;;;;;;5065528;28;20098;-76
2023/07/13 05:59:36;;;;;;;13.55;5.85;;;16.30;99.90;;;;;;5045076;28;20033;-76
2023/07/13 06:02:02;;;;;;;16.10;5.78;;;16.30;99.90;;;;;;5060345;28;20490;-76
2023/07/13 06:04:28;;;;;;;13.52;5.57;;;16.40;99.90;;;;;;5044561;28;20143;-77
2023/07/13 06:06:54;;;;;;;12.02;5.10;;;16.40;99.90;;;;;;5069137;28;20048;-79
2023/07/13 06:09:19;;;;;;;13.90;5.75;;;16.60;99.90;;;;;;5059402;28;20555;-79
2023/07/13 06:11:45;;;;;;;11.65;4.95;;;16.60;99.90;;;;;;5065753;28;20386;-80
2023/07/13 06:14:11;;;;;;;12.32;5.13;;;16.70;99.90;;;;;;5048916;28;20068;-79
2023/07/13 06:16:37;;;;;;;11.30;5.43;;;16.70;99.90;;;;;;5070380;28;20123;-81
2023/07/13 06:19:02;;;;;;;14.85;5.63;;;16.80;99.90;;;;;;5049132;28;20032;-79
2023/07/13 06:21:28;;;;;;;19.85;5.55;;;16.90;99.90;;;;;;5066928;28;20066;-79
2023/07/13 06:23:54;;;;;;;10.60;4.82;;;16.90;99.90;;;;;;5063814;28;20048;-80
2023/07/13 06:26:21;;;;;;;11.38;4.70;;;17.00;99.90;;;;;;5069477;28;20052;-80
2023/07/13 06:28:47;;;;;;;10.15;5.53;;;17.10;99.90;;;;;;5064745;28;20045;-80
2023/07/13 06:31:13;;;;;;;9.32;4.60;;;17.10;99.90;;;;;;5058735;28;20469;-79
2023/07/13 06:33:39;;;;;;;11.55;4.93;;;17.20;99.90;;;;;;5052974;28;20037;-80
2023/07/13 06:36:07;;;;;;;13.23;5.28;;;17.20;99.90;;;;;;5050233;28;20055;-80
2023/07/13 06:38:33;;;;;;;13.85;4.90;;;17.30;99.90;;;;;;5056936;28;20089;-79
2023/07/13 06:40:59;;;;;;;11.07;4.80;;;17.40;99.90;;;;;;5054973;28;20036;-79
2023/07/13 06:43:25;;;;;;;13.60;5.45;;;17.50;99.90;;;;;;5067307;28;20048;-79
2023/07/13 06:45:54;;;;;;;11.50;4.47;;;17.50;99.90;;;;;;5049581;28;20036;-79
2023/07/13 06:48:26;;;;;;;11.65;5.32;;;17.70;99.90;;;;;;5056433;28;20519;-80
2023/07/13 06:50:53;;;;;;;9.05;4.35;;;17.80;99.90;;;;;;5043336;28;20445;-80
2023/07/13 06:53:20;;;;;;;12.30;4.35;;;17.90;99.90;;;;;;5063565;28;20469;-81
2023/07/13 06:55:46;;;;;;;11.50;4.95;;;18.10;99.90;;;;;;5065883;28;20039;-81
2023/07/13 06:58:13;;;;;;;12.48;5.20;;;18.30;99.90;;;;;;5050941;28;20560;-79
2023/07/13 07:00:40;;;;;;;10.95;4.78;;;18.40;99.90;;;;;;5066993;28;20094;-80
2023/07/13 07:03:05;;;;;;;11.38;5.43;;;18.60;99.90;;;;;;5051662;28;20048;-80
2023/07/13 07:05:31;;;;;;;10.82;5.15;;;18.60;99.90;;;;;;5065451;28;20608;-79
2023/07/13 07:08:00;;;;;;;10.45;5.55;;;18.60;99.90;;;;;;5066038;28;20557;-79
2023/07/13 07:10:26;;;;;;;14.98;5.47;;;18.60;99.90;;;;;;5080993;28;20051;-79
2023/07/13 07:12:52;;;;;;;11.77;5.50;;;18.60;99.90;;;;;;5051634;28;20527;-79
2023/07/13 07:15:21;;;;;;;13.05;4.72;;;18.60;99.90;;;;;;5065850;28;20048;-81
2023/07/13 07:17:50;;;;;;;8.80;4.25;;;18.60;99.90;;;;;;5064230;28;20043;-80
2023/07/13 07:20:16;;;;;;;12.02;4.45;;;18.60;99.90;;;;;;5046595;28;20040;-80
2023/07/13 07:22:42;;;;;;;9.43;4.20;;;18.60;99.90;;;;;;5066088;28;20101;-80
2023/07/13 07:25:10;;;;;;;9.43;4.50;;;18.50;99.90;;;;;;5061963;28;20505;-80
2023/07/13 07:27:35;;;;;;;11.40;4.38;;;18.50;99.90;;;;;;5065585;28;20040;-81
2023/07/13 07:30:01;;;;;;;9.30;3.50;;;18.50;99.90;;;;;;5050132;28;20050;-80
2023/07/13 07:32:29;;;;;;;9.40;4.00;;;18.70;99.90;;;;;;5048581;28;20897;-81
2023/07/13 07:34:55;;;;;;;10.68;4.57;;;19.00;99.90;;;;;;5059594;28;20097;-81
2023/07/13 07:37:21;;;;;;;13.55;5.07;;;19.00;99.90;;;;;;5051684;28;20047;-81
2023/07/13 07:39:47;;;;;;;13.70;5.22;;;18.90;99.90;;;;;;5066504;28;20044;-84
2023/07/13 07:42:12;;;;;;;8.75;4.32;;;18.80;99.90;;;;;;5062910;28;20040;-86
2023/07/13 07:44:40;;;;;;;14.40;6.18;;;18.60;99.90;;;;;;5065281;28;20819;-84
2023/07/13 07:47:06;;;;;;;9.88;5.30;;;18.40;99.90;;;;;;5064661;28;20040;-85
2023/07/13 07:49:32;;;;;;;13.07;5.85;;;18.20;99.90;;;;;;5059087;28;20071;-86
2023/07/13 07:51:57;;;;;;;14.25;7.13;;;18.20;99.90;;;;;;5049668;28;20040;-85
2023/07/13 07:54:23;;;;;;;13.43;6.47;;;18.10;99.90;;;;;;5038527;28;20523;-85
2023/07/13 07:56:49;;;;;;;12.95;6.65;;;18.20;99.90;;;;;;5062804;28;20032;-84
2023/07/13 07:59:15;;;;;;;11.23;6.43;;;18.40;99.90;;;;;;5048135;28;20056;-85
2023/07/13 08:01:41;;;;;;;12.95;6.30;;;18.50;99.90;;;;;;5044256;28;20055;-84
2023/07/13 08:04:06;;;;;;;11.35;6.30;;;18.60;99.90;;;;;;5063414;28;20513;-84
2023/07/13 08:06:33;;;;;;;11.20;6.13;;;18.70;99.90;;;;;;5063566;28;20091;-86
2023/07/13 08:09:01;;;;;;;14.50;5.82;;;18.90;99.90;;;;;;5052547;28;20084;-85
2023/07/13 08:11:27;;;;;;;11.75;5.95;;;19.00;99.90;;;;;;5045741;28;20106;-84
2023/07/13 08:13:52;;;;;;;12.50;5.75;;;19.10;99.90;;;;;;5059750;28;20032;-85
2023/07/13 08:16:22;;;;;;;14.85;6.40;;;19.10;99.90;;;;;;5050650;28;20043;-85
2023/07/13 08:18:48;;;;;;;11.57;6.18;;;19.00;99.90;;;;;;5040620;28;20037;-83
2023/07/13 08:21:14;;;;;;;14.32;6.20;;;18.90;99.90;;;;;;5066426;28;20037;-84
2023/07/13 08:23:40;;;;;;;12.20;6.78;;;18.80;99.90;;;;;;5055640;28;20256;-82
2023/07/13 08:26:06;;;;;;;13.57;6.70;;;18.70;99.90;;;;;;5041333;28;20037;-82
2023/07/13 08:28:33;;;;;;;13.95;7.20;;;18.60;99.90;;;;;;5064010;28;20136;-82
2023/07/13 08:31:07;;;;;;;15.25;7.85;;;18.50;99.90;;;;;;5048015;28;20559;-83
2023/07/13 08:33:35;;;;;;;14.63;7.32;;;18.40;99.90;;;;;;5048515;28;20541;-81
2023/07/13 08:36:00;;;;;;;6.20;3.45;;;18.10;99.90;;;;;;5057389;28;20598;-82
2023/07/13 08:38:26;;;;;;;10.73;4.28;;;17.90;99.90;;;;;;5055369;28;20037;-81
2023/07/13 08:40:55;;;;;;;12.00;4.60;;;17.50;99.90;;;;;;5063409;28;20490;-81
2023/07/13 08:43:26;;;;;;;10.38;4.78;;;17.30;99.90;;;;;;5060545;28;20055;-80
2023/07/13 08:46:11;;;;;;;10.27;5.07;;;17.10;99.90;;;;;;5063070;28;20102;-79
2023/07/13 08:48:59;;;;;;;10.68;5.75;;;17.00;99.90;;;;;;5052536;28;20032;-79
2023/07/13 08:51:28;;;;;;;10.77;5.57;;;16.90;99.90;;;;;;5066223;28;20053;-81
2023/07/13 08:54:03;;;;;;;15.35;6.97;;;16.90;99.90;;;;;;5049915;28;20054;-81
2023/07/13 08:56:31;;;;;;;10.23;4.97;;;16.90;99.90;;;;;;5046947;28;20098;-81
2023/07/13 08:59:18;;;;;;;10.02;5.18;;;17.00;99.90;;;;;;5044231;28;20040;-81
2023/07/13 09:01:56;;;;;;;15.18;8.10;;;17.10;99.90;;;;;;5044247;28;20055;-81
2023/07/13 09:04:32;;;;;;;12.85;7.65;;;17.00;99.90;;;;;;5061836;28;20044;-82
2023/07/13 09:07:07;;;;;;;14.65;9.63;;;17.10;99.90;;;;;;5049845;28;20417;-82
2023/07/13 09:09:51;;;;;;;13.88;8.13;;;17.10;99.90;;;;;;5041931;28;20040;-83
2023/07/13 09:12:26;;;;;;;15.15;8.07;;;17.10;99.90;;;;;;5066687;28;20490;-82
2023/07/13 09:14:57;;;;;;;13.52;8.55;;;17.00;99.90;;;;;;5060305;28;20127;-82
2023/07/13 09:17:29;;;;;;;12.13;8.45;;;17.10;99.90;;;;;;5059421;28;20036;-83
2023/07/13 09:20:05;;;;;;;14.00;8.50;;;17.00;99.90;;;;;;5065224;28;20043;-82
2023/07/13 09:22:36;;;;;;;13.43;8.65;;;17.10;99.90;;;;;;5059492;28;20048;-81
2023/07/13 09:25:09;;;;;;;12.30;8.50;;;17.10;99.90;;;;;;5064450;28;20111;-83
2023/07/13 09:27:45;;;;;;;13.30;8.60;;;17.10;99.90;;;;;;5060687;28;20510;-83
2023/07/13 09:30:28;;;;;;;11.65;6.43;;;17.10;99.90;;;;;;5051643;28;20092;-82
2023/07/13 09:32:54;;;;;;;8.40;4.93;;;17.00;99.90;;;;;;5052325;28;20407;-83
2023/07/13 09:35:28;;;;;;;7.15;3.67;;;17.00;99.90;;;;;;5064754;28;20056;-81
2023/07/13 09:38:14;;;;;;;5.30;3.78;;;16.80;99.90;;;;;;5052499;28;20428;-81
2023/07/13 09:41:17;;;;;;;6.38;3.60;;;16.70;99.90;;;;;;5062192;28;20109;-81
2023/07/13 09:44:30;;;;;;;6.28;3.85;;;16.60;99.90;;;;;;5064124;28;20128;-81
2023/07/13 09:46:57;;;;;;;5.95;3.40;;;16.60;99.90;;;;;;5007958;28;20765;-80
2023/07/13 09:49:33;;;;;;;5.75;3.58;;;16.80;99.90;;;;;;5027153;28;20048;-80
2023/07/13 09:52:04;;;;;;;5.28;4.07;;;17.00;99.90;;;;;;5061116;28;20097;-80
2023/07/13 09:54:34;;;;;;;5.32;3.20;;;17.40;99.90;;;;;;5059102;28;20434;-82
2023/07/13 09:57:02;;;;;;;5.00;3.88;;;17.70;99.90;;;;;;5073314;28;20055;-81
2023/07/13 09:59:40;;;;;;;5.55;3.78;;;18.00;99.90;;;;;;5050251;28;20126;-81
2023/07/13 10:02:33;;;;;;;4.97;3.90;;;18.20;99.90;;;;;;5048731;28;20396;-81
2023/07/13 10:05:19;;;;;;;7.43;3.45;;;18.50;99.90;;;;;;5044583;28;20056;-83
2023/07/13 10:07:45;;;;;;;3.60;2.40;;;18.70;99.90;;;;;;5050551;28;20546;-81
2023/07/13 10:10:21;;;;;;;3.30;2.28;;;18.90;99.90;;;;;;5061216;28;20051;-83
2023/07/13 10:12:48;;;;;;;4.25;2.42;;;19.10;99.90;;;;;;5045305;28;20044;-81
2023/07/13 10:15:24;;;;;;;5.90;2.60;;;19.30;99.90;;;;;;5047540;28;20086;-81
2023/07/13 10:17:55;;;;;;;4.53;2.65;;;19.60;99.90;;;;;;5064692;28;20044;-82
2023/07/13 10:20:22;;;;;;;5.93;2.80;;;19.80;99.90;;;;;;5050685;28;20516;-81
2023/07/13 10:23:04;;;;;;;5.57;2.70;;;20.00;99.90;;;;;;5063865;28;20048;-82
2023/07/13 10:25:38;;;;;;;6.63;2.88;;;20.20;99.90;;;;;;5060531;28;20045;-82
2023/07/13 10:28:31;;;;;;;4.45;3.10;;;20.50;99.90;;;;;;5071186;28;20410;-81
2023/07/13 10:31:00;;;;;;;5.63;3.20;;;20.70;99.90;;;;;;5066644;28;20053;-82
2023/07/13 10:33:26;;;;;;;6.25;3.25;;;20.80;99.90;;;;;;5066525;28;20127;-80
2023/07/13 10:36:22;;;;;;;6.63;4.38;;;20.80;99.90;;;;;;5064920;28;20118;-81
2023/07/13 10:38:50;;;;;;;11.20;4.35;;;21.00;99.90;;;;;;5031982;28;20567;-81
2023/07/13 10:41:21;;;;;;;6.75;4.47;;;21.10;99.90;;;;;;5058002;28;20048;-79
2023/07/13 10:43:55;;;;;;;9.75;5.07;;;21.30;99.90;;;;;;5059985;28;20048;-79
2023/07/13 10:46:26;;;;;;;8.55;4.55;;;21.40;99.90;;;;;;5070855;28;20080;-80
2023/07/13 10:48:58;;;;;;;8.70;4.13;;;21.50;99.90;;;;;;5067916;28;20037;-80
2023/07/13 10:51:25;;;;;;;9.07;4.35;;;21.70;99.90;;;;;;5064983;28;20554;-81
2023/07/13 10:54:31;;;;;;;7.43;3.80;;;21.80;99.90;;;;;;5063054;28;20373;-80
2023/07/13 10:57:17;;;;;;;6.50;4.32;;;21.60;99.90;;;;;;4964243;28;20065;-80
2023/07/13 10:59:49;;;;;;;6.63;3.90;;;21.50;99.90;;;;;;5059030;28;20584;-80
2023/07/13 11:02:28;;;;;;;5.15;3.80;;;21.40;99.90;;;;;;5053103;28;20219;-80
2023/07/13 11:04:57;;;;;;;5.13;2.20;;;21.60;99.90;;;;;;5068596;28;20052;-80
2023/07/13 11:07:28;;;;;;;4.22;1.80;;;21.80;99.90;;;;;;5075311;28;20067;-80
2023/07/13 11:10:00;;;;;;;4.63;1.70;;;21.90;99.90;;;;;;5049903;28;20490;-80
2023/07/13 11:12:53;;;;;;;5.82;2.10;;;22.00;99.90;;;;;;5063709;28;20118;-80
2023/07/13 11:15:42;;;;;;;5.38;1.77;;;21.90;99.90;;;;;;5068582;28;20834;-80
2023/07/13 11:18:21;;;;;;;3.97;2.05;;;21.60;99.90;;;;;;5066019;28;20530;-80
2023/07/13 11:20:49;;;;;;;4.95;1.98;;;21.40;99.90;;;;;;5047520;28;20040;-81
2023/07/13 11:23:16;;;;;;;5.53;2.28;;;21.20;99.90;;;;;;5066114;28;20050;-80
2023/07/13 11:25:42;;;;;;;5.32;1.90;;;21.10;99.90;;;;;;5049753;28;20044;-82
2023/07/13 11:28:11;;;;;;;3.53;1.80;;;21.00;99.90;;;;;;5048139;28;21496;-81
2023/07/13 11:30:42;;;;;;;5.05;2.03;;;20.80;99.90;;;;;;5064814;28;20691;-81
2023/07/13 11:33:17;;;;;;;5.78;2.10;;;20.80;99.90;;;;;;5061846;28;20832;-81
2023/07/13 11:36:00;;;;;;;5.00;2.00;;;20.70;99.90;;;;;;5047286;28;20151;-81
2023/07/13 11:38:40;;;;;;;4.07;1.80;;;20.80;99.90;;;;;;5054950;28;21009;-80
2023/07/13 11:41:23;;;;;;;4.03;1.73;;;20.90;99.90;;;;;;5065292;28;20056;-80
2023/07/13 11:44:05;;;;;;;5.95;2.00;;;20.90;99.90;;;;;;5045586;28;20050;-81
2023/07/13 11:46:30;;;;;;;5.88;2.78;;;20.90;99.90;;;;;;5051857;28;20047;-81
2023/07/13 11:48:56;;;;;;;7.20;3.08;;;20.70;99.90;;;;;;5067596;28;20515;-80
2023/07/13 11:51:36;;;;;;;7.05;3.58;;;20.70;99.90;;;;;;5069610;28;20054;-80
2023/07/13 11:54:25;;;;;;;5.20;3.20;;;20.50;99.90;;;;;;5061113;28;20101;-81
2023/07/13 11:56:50;;;;;;;6.43;3.70;;;20.40;99.90;;;;;;5060403;28;20124;-80
2023/07/13 11:59:18;;;;;;;4.25;2.55;;;20.30;99.90;;;;;;5052357;28;20056;-81
2023/07/13 12:01:49;;;;;;;4.82;2.10;;;20.30;99.90;;;;;;5048040;28;20040;-81
2023/07/13 12:04:28;;;;;;;3.25;1.90;;;20.30;99.90;;;;;;5069284;28;20512;-81
2023/07/13 12:07:04;;;;;;;5.40;1.88;;;20.50;99.90;;;;;;5055074;28;20143;-81
2023/07/13 12:09:30;;;;;;;3.40;1.77;;;20.50;99.90;;;;;;5054736;28;20051;-80
2023/07/13 12:11:59;;;;;;;5.13;1.88;;;20.40;99.90;;;;;;5060402;28;20041;-82
2023/07/13 12:14:26;;;;;;;5.55;1.67;;;20.40;99.90;;;;;;5057685;28;20522;-80
2023/07/13 12:16:52;;;;;;;5.22;1.60;;;20.30;99.90;;;;;;5056937;28;20402;-81
2023/07/13 12:19:27;;;;;;;4.63;1.88;;;20.30;99.90;;;;;;5055657;28;20404;-81
2023/07/13 12:21:56;;;;;;;5.85;1.73;;;20.30;99.90;;;;;;5066415;28;20045;-80
2023/07/13 12:24:24;;;;;;;5.75;2.38;;;20.20;99.90;;;;;;5068341;28;20561;-80
2023/07/13 12:27:03;;;;;;;5.30;1.75;;;20.20;99.90;;;;;;5053010;28;20482;-79
2023/07/13 12:29:31;;;;;;;6.13;2.00;;;20.10;99.90;;;;;;5056665;28;20076;-79
2023/07/13 12:31:57;;;;;;;4.70;1.90;;;20.30;99.90;;;;;;5052065;28;20403;-80
2023/07/13 12:34:25;;;;;;;3.75;1.67;;;20.70;99.90;;;;;;5061121;28;20131;-79
2023/07/13 12:36:53;;;;;;;5.72;1.88;;;21.10;99.90;;;;;;5069448;28;20067;-81
2023/07/13 12:39:28;;;;;;;4.10;1.42;;;21.50;99.90;;;;;;5066479;28;20059;-80
2023/07/13 12:42:09;;;;;;;6.88;1.75;;;21.90;99.90;;;;;;5056812;28;20118;-79
2023/07/13 12:44:41;;;;;;;5.80;1.50;;;22.20;99.90;;;;;;5062428;28;20052;-81
2023/07/13 12:47:13;;;;;;;4.32;1.52;;;22.50;99.90;;;;;;5060338;28;20403;-80
2023/07/13 12:49:52;;;;;;;3.75;1.30;;;22.70;99.90;;;;;;5049912;28;20732;-81
2023/07/13 12:52:24;;;;;;;4.32;1.52;;;22.70;99.10;;;;;;5058481;28;20106;-81